Time;durP1;ratioP1;P1;durP2;ratioP2;P2;SDS_P1;SDS_P2;PMS_P1;PMS_P2;Temp;Humidity;BMP_temperature;BMP_pressure;BME280_temperature;BME280_humidity;BME280_pressure;Samples;Min_cycle;Max_cycle;Signal;HPM_P1;HPM_P2
2022/03/09 06:47:57;;;;;;;;;;;;;;;5.00;60.70;99116.22;5697294;24;20221;-64
2022/03/09 06:50:25;;;;;;;;;;;;;;;5.22;60.49;99119.41;4848050;29;20007;-65
2022/03/09 06:52:52;;;;;;;;;;;;;;;5.58;58.89;99124.22;4848687;29;19952;-65
2022/03/09 06:55:19;;;;;;;;;;;;;;;6.11;56.64;99119.63;4845299;29;19969;-65
2022/03/09 06:57:47;;;;;;;;;;;;;;;6.63;55.86;99122.44;4849302;29;19959;-65
2022/03/09 07:00:16;;;;;;;;;;;;;;;7.17;54.33;99124.41;4844695;29;19962;-65
2022/03/09 07:02:44;;;;;;;;;;;;;;;8.05;48.89;99125.06;4848511;29;19956;-66
2022/03/09 07:05:13;;;;;;;;;;;;;;;8.96;44.91;99131.97;4848990;29;19959;-67
2022/03/09 07:07:40;;;;;;;;;;;;;;;10.17;41.29;99130.25;4848689;29;19947;-65
2022/03/09 07:10:11;;;;;;;;;;;;;;;11.54;38.60;99140.47;4849172;29;19951;-67
2022/03/09 07:12:43;;;;;;;;;;;;;;;12.83;35.55;99139.19;4848029;29;19962;-65
2022/03/09 07:15:10;;;;;;;;;;;;;;;14.08;32.99;99135.56;4842741;29;19969;-68
2022/03/09 07:17:38;;;;;;;;;;;;;;;15.81;30.34;99149.22;4829631;29;19955;-65
2022/03/09 07:20:06;;;;;;;;;;;;;;;17.24;27.87;99143.50;4848040;29;20251;-66
2022/03/09 07:22:36;;;;;;;;;;;;;;;18.85;25.98;99150.03;4840538;29;19952;-66
2022/03/09 07:25:04;;;;;;;;;;;;;;;20.54;24.26;99157.72;4847693;29;19957;-66
2022/03/09 07:27:32;;;;;;;;;;;;;;;22.25;22.37;99163.88;4845178;29;19957;-66
2022/03/09 07:30:00;;;;;;;;;;;;;;;23.20;21.48;99172.06;4845069;29;20366;-66
2022/03/09 07:32:27;;;;;;;;;;;;;;;23.05;21.44;99175.88;4851052;29;20242;-67
2022/03/09 07:35:13;;;;;;;;;;;;;;;21.51;21.74;99178.28;4844134;29;19965;-66
2022/03/09 07:37:41;;;;;;;;;;;;;;;20.78;22.57;99187.56;4846997;29;20352;-66
2022/03/09 07:40:09;;;;;;;;;;;;;;;19.28;23.61;99186.88;4843786;29;19958;-67
2022/03/09 07:42:36;;;;;;;;;;;;;;;17.34;25.56;99190.63;4831520;29;19955;-66
2022/03/09 07:45:06;;;;;;;;;;;;;;;17.20;26.54;99190.00;4839581;29;19950;-66
2022/03/09 07:47:34;;;;;;;;;;;;;;;16.58;27.06;99193.84;4841957;29;19956;-66
2022/03/09 07:50:04;;;;;;;;;;;;;;;15.88;27.82;99200.75;4846175;29;19957;-66
2022/03/09 07:52:32;;;;;;;;;;;;;;;15.52;28.42;99193.69;4841731;29;20368;-66
2022/03/09 07:55:03;;;;;;;;;;;;;;;15.22;29.85;99184.91;4846496;29;19994;-66
2022/03/09 07:57:30;;;;;;;;;;;;;;;14.95;29.82;99187.41;4844353;29;20381;-66
2022/03/09 07:59:58;;;;;;;;;;;;;;;14.96;29.75;99186.19;4834283;29;20238;-66
2022/03/09 08:02:25;;;;;;;;;;;;;;;14.79;30.03;99193.47;4847004;29;19950;-66
2022/03/09 08:04:52;;;;;;;;;;;;;;;14.25;31.50;99197.47;4846210;29;19956;-66
2022/03/09 08:07:20;;;;;;;;;;;;;;;14.06;31.31;99199.88;4846413;29;19949;-66
2022/03/09 08:09:47;;;;;;;;;;;;;;;14.43;30.77;99189.84;4843768;29;20363;-66
2022/03/09 08:12:14;;;;;;;;;;;;;;;13.77;33.42;99185.72;4846581;29;19958;-66
2022/03/09 08:14:42;;;;;;;;;;;;;;;14.01;32.10;99184.16;4847807;29;19966;-66
2022/03/09 08:17:09;;;;;;;;;;;;;;;13.94;31.71;99197.44;4845823;29;19979;-66
2022/03/09 08:19:36;;;;;;;;;;;;;;;14.14;31.05;99188.22;4847296;29;20456;-66
2022/03/09 08:22:04;;;;;;;;;;;;;;;14.05;31.36;99178.56;4843048;29;20248;-66
2022/03/09 08:24:33;;;;;;;;;;;;;;;13.84;31.93;99180.13;4846362;29;19956;-65
2022/03/09 08:27:02;;;;;;;;;;;;;;;13.85;32.14;99180.94;4845893;29;19955;-66
2022/03/09 08:29:30;;;;;;;;;;;;;;;13.55;32.45;99172.00;4829437;29;19954;-66
2022/03/09 08:31:57;;;;;;;;;;;;;;;13.41;32.32;99181.19;4844224;29;20285;-66
2022/03/09 08:34:25;;;;;;;;;;;;;;;13.22;32.95;99181.53;4846979;29;19951;-66
2022/03/09 08:36:52;;;;;;;;;;;;;;;13.16;33.03;99181.09;4847485;29;19948;-66
2022/03/09 08:39:19;;;;;;;;;;;;;;;12.85;33.91;99183.69;4845299;29;19962;-66
2022/03/09 08:41:47;;;;;;;;;;;;;;;12.58;35.07;99177.50;4845802;29;20384;-66
2022/03/09 08:44:25;;;;;;;;;;;;;;;12.24;35.67;99176.00;4845373;29;19960;-66
2022/03/09 08:46:54;;;;;;;;;;;;;;;12.14;35.95;99173.91;4846847;29;19957;-66
2022/03/09 08:49:23;;;;;;;;;;;;;;;11.99;35.69;99170.19;4845725;29;19972;-66
2022/03/09 08:51:50;;;;;;;;;;;;;;;12.09;36.03;99179.88;4842998;29;19954;-67
2022/03/09 08:54:19;;;;;;;;;;;;;;;12.12;36.10;99181.91;4843388;29;19960;-66
2022/03/09 08:56:46;;;;;;;;;;;;;;;12.09;36.59;99177.88;4832424;29;19972;-66
2022/03/09 08:59:13;;;;;;;;;;;;;;;12.12;36.50;99174.31;4864188;29;19952;-66
2022/03/09 09:01:41;;;;;;;;;;;;;;;11.95;36.46;99185.34;4864034;29;19954;-66
2022/03/09 09:04:10;;;;;;;;;;;;;;;11.97;37.59;99183.78;4840136;29;19953;-66
2022/03/09 09:06:38;;;;;;;;;;;;;;;11.85;36.97;99182.06;4840043;29;19954;-66
2022/03/09 09:09:05;;;;;;;;;;;;;;;11.95;36.58;99174.97;4847137;29;19949;-66
2022/03/09 09:11:32;;;;;;;;;;;;;;;11.98;35.90;99176.19;4837980;29;20035;-66
2022/03/09 09:14:01;;;;;;;;;;;;;;;11.94;36.93;99170.53;4837486;29;19956;-66
2022/03/09 09:16:28;;;;;;;;;;;;;;;11.69;36.79;99175.88;4843918;29;19974;-66
2022/03/09 09:18:55;;;;;;;;;;;;;;;11.76;36.49;99172.38;4837177;29;20256;-66
2022/03/09 09:21:23;;;;;;;;;;;;;;;11.41;37.68;99171.94;4844990;29;19953;-66
2022/03/09 09:23:50;;;;;;;;;;;;;;;11.48;36.49;99169.22;4845837;29;20121;-66
2022/03/09 09:26:18;;;;;;;;;;;;;;;11.47;36.96;99170.41;4845781;29;19975;-66
2022/03/09 09:29:06;;;;;;;;;;;;;;;11.41;36.90;99167.16;4846584;29;19951;-66
2022/03/09 09:31:34;;;;;;;;;;;;;;;11.55;36.61;99166.50;4843318;29;19950;-66
2022/03/09 09:34:02;;;;;;;;;;;;;;;11.59;37.28;99156.16;4847330;29;20252;-66
2022/03/09 09:36:29;;;;;;;;;;;;;;;11.67;36.63;99157.81;4834023;29;20390;-66
2022/03/09 09:38:57;;;;;;;;;;;;;;;11.70;37.28;99157.91;4827790;29;19955;-66
2022/03/09 09:41:26;;;;;;;;;;;;;;;11.44;36.13;99149.59;4828017;29;19950;-66
2022/03/09 09:43:53;;;;;;;;;;;;;;;11.58;36.54;99143.31;4828088;29;19957;-66
2022/03/09 09:46:21;;;;;;;;;;;;;;;11.58;37.22;99137.72;4827907;29;19986;-66
2022/03/09 09:48:49;;;;;;;;;;;;;;;11.65;37.55;99138.59;4837762;29;19977;-66
2022/03/09 09:51:17;;;;;;;;;;;;;;;11.50;37.08;99142.44;4845700;29;20247;-66
2022/03/09 09:53:45;;;;;;;;;;;;;;;11.55;38.17;99141.28;4850468;29;19946;-66
2022/03/09 09:56:13;;;;;;;;;;;;;;;11.38;37.00;99136.28;4845420;29;20347;-66
2022/03/09 09:58:41;;;;;;;;;;;;;;;11.39;37.40;99135.94;4843467;29;19951;-65
2022/03/09 10:01:09;;;;;;;;;;;;;;;11.54;37.72;99134.88;4830139;29;19955;-66
2022/03/09 10:03:36;;;;;;;;;;;;;;;11.40;37.81;99131.91;4844324;29;19956;-66
2022/03/09 10:06:04;;;;;;;;;;;;;;;10.90;38.11;99127.72;4847210;29;19948;-66
2022/03/09 10:08:35;;;;;;;;;;;;;;;10.81;40.83;99123.59;4834177;29;20367;-66
2022/03/09 10:11:03;;;;;;;;;;;;;;;10.90;39.85;99124.13;4848689;29;19956;-66
2022/03/09 10:13:35;;;;;;;;;;;;;;;11.02;39.19;99116.28;4849415;29;20250;-66
2022/03/09 10:16:10;;;;;;;;;;;;;;;11.06;38.43;99117.13;4848837;29;19971;-66
2022/03/09 10:18:38;;;;;;;;;;;;;;;11.25;37.92;99118.16;4845443;29;19952;-66
2022/03/09 10:21:10;;;;;;;;;;;;;;;10.86;38.95;99107.28;4849208;29;20392;-65
2022/03/09 10:23:54;;;;;;;;;;;;;;;10.80;38.99;99113.59;4847180;29;19954;-66
2022/03/09 10:26:28;;;;;;;;;;;;;;;10.67;40.85;99112.19;4846343;29;20538;-66
2022/03/09 10:29:00;;;;;;;;;;;;;;;10.60;39.86;99109.31;4839412;29;20258;-68
2022/03/09 10:31:37;;;;;;;;;;;;;;;10.51;40.68;99104.00;4846447;29;19947;-67
2022/03/09 10:34:05;;;;;;;;;;;;;;;10.33;42.84;99102.94;4848903;29;19947;-67
2022/03/09 10:36:33;;;;;;;;;;;;;;;10.65;42.46;99098.59;4843547;29;19977;-68
2022/03/09 10:39:10;;;;;;;;;;;;;;;10.89;44.46;99100.13;4840759;29;19946;-68
2022/03/09 10:41:38;;;;;;;;;;;;;;;10.91;41.85;99103.34;4830088;29;19957;-66
2022/03/09 10:44:05;;;;;;;;;;;;;;;10.98;40.62;99101.44;4830385;29;19949;-68
2022/03/09 10:46:43;;;;;;;;;;;;;;;10.54;40.03;99097.63;4830593;29;19951;-67
2022/03/09 10:49:12;;;;;;;;;;;;;;;10.82;41.69;99105.63;4829923;29;19978;-68
2022/03/09 10:51:41;;;;;;;;;;;;;;;10.98;41.26;99103.44;4830787;29;19949;-67
2022/03/09 10:54:09;;;;;;;;;;;;;;;11.10;39.74;99106.78;4848018;29;19947;-67
2022/03/09 10:56:36;;;;;;;;;;;;;;;11.24;40.26;99094.94;4847499;29;19981;-67
2022/03/09 10:59:25;;;;;;;;;;;;;;;11.21;39.11;99096.53;4847005;29;19945;-67
2022/03/09 11:02:03;;;;;;;;;;;;;;;11.03;41.38;99095.50;4847297;29;19945;-67
2022/03/09 11:04:31;;;;;;;;;;;;;;;11.24;40.75;99092.16;4846626;29;19959;-67
2022/03/09 11:06:58;;;;;;;;;;;;;;;11.29;40.65;99091.00;4848591;29;19952;-67
2022/03/09 11:09:26;;;;;;;;;;;;;;;10.50;42.53;99082.81;4842110;29;20248;-67
2022/03/09 11:11:53;;;;;;;;;;;;;;;10.55;43.19;99080.50;4847217;29;19952;-67
2022/03/09 11:14:25;;;;;;;;;;;;;;;10.24;44.12;99077.25;4845839;29;19954;-68
2022/03/09 11:16:57;;;;;;;;;;;;;;;10.28;42.15;99073.31;4841923;29;19975;-67
2022/03/09 11:19:25;;;;;;;;;;;;;;;10.36;42.36;99069.44;4846502;29;19948;-67
2022/03/09 11:21:52;;;;;;;;;;;;;;;10.34;44.22;99060.63;4840359;29;19956;-67
2022/03/09 11:24:20;;;;;;;;;;;;;;;10.44;43.90;99064.78;4847851;29;19959;-67
2022/03/09 11:26:55;;;;;;;;;;;;;;;10.50;42.71;99064.06;4840104;29;19961;-67
2022/03/09 11:29:31;;;;;;;;;;;;;;;10.50;45.20;99054.84;4833782;29;19951;-67
2022/03/09 11:31:59;;;;;;;;;;;;;;;10.69;44.94;99045.50;4847620;29;19955;-67
2022/03/09 11:34:46;;;;;;;;;;;;;;;10.54;42.52;99045.31;4836748;29;19953;-67
2022/03/09 11:37:14;;;;;;;;;;;;;;;10.76;43.36;99040.00;4837747;29;19969;-67
2022/03/09 11:39:43;;;;;;;;;;;;;;;10.23;44.47;99040.09;4847120;29;19954;-67
2022/03/09 11:42:20;;;;;;;;;;;;;;;10.27;45.91;99040.16;4846865;29;19954;-67
2022/03/09 11:44:50;;;;;;;;;;;;;;;10.57;46.25;99038.97;4844810;29;19962;-67
2022/03/09 11:47:18;;;;;;;;;;;;;;;10.64;44.13;99031.88;4847274;29;19968;-67
2022/03/09 11:49:53;;;;;;;;;;;;;;;10.41;46.20;99030.00;4848641;29;19981;-67
2022/03/09 11:52:20;;;;;;;;;;;;;;;10.38;46.80;99027.94;4847590;29;19952;-67
2022/03/09 11:54:49;;;;;;;;;;;;;;;10.33;46.95;99024.66;4846907;29;19956;-67
2022/03/09 11:57:16;;;;;;;;;;;;;;;10.36;46.23;99027.53;4846382;29;19981;-67
2022/03/09 11:59:59;;;;;;;;;;;;;;;10.31;45.89;99025.06;4848709;29;19966;-67
2022/03/09 12:02:39;;;;;;;;;;;;;;;10.29;46.18;99021.03;4847530;29;20229;-67
2022/03/09 12:05:08;;;;;;;;;;;;;;;10.33;46.03;99024.66;4846970;29;19958;-67
2022/03/09 12:07:44;;;;;;;;;;;;;;;10.27;44.80;99026.19;4846496;29;19957;-67
2022/03/09 12:10:12;;;;;;;;;;;;;;;10.26;46.17;99016.19;4842084;29;19955;-67
2022/03/09 12:12:59;;;;;;;;;;;;;;;10.42;44.24;99014.00;4837087;29;19959;-67
2022/03/09 12:15:26;;;;;;;;;;;;;;;10.25;45.70;99015.38;4846946;29;19953;-67
2022/03/09 12:17:53;;;;;;;;;;;;;;;10.50;48.35;99016.50;4834873;29;19971;-67
2022/03/09 12:20:23;;;;;;;;;;;;;;;10.51;44.16;99008.94;4844136;29;19952;-67
2022/03/09 12:22:57;;;;;;;;;;;;;;;10.20;46.85;99009.28;4837212;29;20261;-67
2022/03/09 12:25:41;;;;;;;;;;;;;;;10.35;44.64;99008.31;4841622;29;19954;-67
2022/03/09 12:28:20;;;;;;;;;;;;;;;10.29;43.83;98998.66;4847089;29;19955;-67
2022/03/09 12:30:48;;;;;;;;;;;;;;;10.35;44.52;98994.34;4846360;29;19957;-67
2022/03/09 12:33:35;;;;;;;;;;;;;;;10.08;44.10;98998.31;4847070;29;20250;-67
2022/03/09 12:36:05;;;;;;;;;;;;;;;10.21;44.97;98994.16;4846581;29;19957;-67
2022/03/09 12:38:53;;;;;;;;;;;;;;;10.33;45.90;98991.94;4833732;29;19957;-67
2022/03/09 12:41:23;;;;;;;;;;;;;;;10.42;46.84;98980.44;4834622;29;19954;-67
2022/03/09 12:43:52;;;;;;;;;;;;;;;10.02;45.97;98988.66;4841009;29;19952;-67
2022/03/09 12:46:20;;;;;;;;;;;;;;;10.15;47.40;98976.13;4844910;29;19960;-67
2022/03/09 12:48:47;;;;;;;;;;;;;;;10.14;47.06;98980.91;4840960;29;19968;-67
2022/03/09 12:51:15;;;;;;;;;;;;;;;10.39;47.40;98975.63;4835816;29;19961;-67
2022/03/09 12:53:51;;;;;;;;;;;;;;;10.49;49.12;98975.75;4844384;29;19946;-67
2022/03/09 12:56:20;;;;;;;;;;;;;;;10.64;49.44;98973.16;4837876;29;19952;-67
2022/03/09 12:59:09;;;;;;;;;;;;;;;10.62;44.85;98973.50;4845258;29;19985;-67
2022/03/09 13:01:37;;;;;;;;;;;;;;;10.32;45.36;98981.13;4837557;29;19950;-67
2022/03/09 13:04:06;;;;;;;;;;;;;;;10.38;43.96;98974.00;4845414;29;19950;-67
2022/03/09 13:06:36;;;;;;;;;;;;;;;10.42;44.33;98969.25;4851358;29;20232;-67
2022/03/09 13:09:03;;;;;;;;;;;;;;;10.17;44.57;98980.13;4838082;29;19955;-67
2022/03/09 13:11:35;;;;;;;;;;;;;;;10.16;45.17;98972.94;4841781;29;19953;-67
2022/03/09 13:14:13;;;;;;;;;;;;;;;10.27;46.50;98971.06;4845773;29;19958;-67
2022/03/09 13:16:41;;;;;;;;;;;;;;;10.37;44.55;98967.59;4832052;29;19956;-67
2022/03/09 13:19:08;;;;;;;;;;;;;;;10.25;45.25;98969.84;4845808;29;19954;-68
2022/03/09 13:21:36;;;;;;;;;;;;;;;10.27;45.97;98959.88;4843260;29;19956;-67
2022/03/09 13:24:04;;;;;;;;;;;;;;;10.29;45.11;98962.31;4839373;29;19959;-67
2022/03/09 13:26:37;;;;;;;;;;;;;;;10.38;46.23;98966.44;4846485;29;19958;-67
2022/03/09 13:29:10;;;;;;;;;;;;;;;10.45;46.94;98958.13;4845476;29;19960;-67
2022/03/09 13:31:40;;;;;;;;;;;;;;;10.64;46.01;98956.38;4844883;29;19954;-67
2022/03/09 13:34:14;;;;;;;;;;;;;;;10.63;45.58;98954.75;4842821;29;19958;-67
2022/03/09 13:36:43;;;;;;;;;;;;;;;10.17;45.72;98954.97;4845810;29;19952;-67
2022/03/09 13:39:11;;;;;;;;;;;;;;;10.40;46.19;98952.88;4845084;29;19952;-67
2022/03/09 13:41:40;;;;;;;;;;;;;;;10.49;44.65;98952.56;4845275;29;19949;-67
2022/03/09 14:05:37;;;;;;;;;;;;;;;10.21;44.11;98936.28;4826136;29;20060;-67
2022/03/09 14:15:23;;;;;;;;;;;;;;;10.24;44.96;98923.53;4830227;29;19961;-67
2022/03/09 14:17:50;;;;;;;;;;;;;;;10.21;45.26;98924.28;4825431;29;19973;-67
2022/03/09 14:20:18;;;;;;;;;;;;;;;10.02;44.64;98927.19;4843517;29;19958;-67
2022/03/09 14:22:47;;;;;;;;;;;;;;;10.18;44.44;98923.03;4849960;29;19951;-67
2022/03/09 14:25:16;;;;;;;;;;;;;;;10.14;45.33;98913.81;4844544;29;19954;-67
2022/03/09 14:27:44;;;;;;;;;;;;;;;10.26;44.32;98916.38;4841667;29;19963;-67
2022/03/09 14:30:13;;;;;;;;;;;;;;;10.27;44.14;98917.19;4844882;29;19956;-67
2022/03/09 14:32:41;;;;;;;;;;;;;;;10.31;44.22;98918.03;4829581;29;19949;-67
2022/03/09 14:35:15;;;;;;;;;;;;;;;10.33;46.14;98918.44;4845417;29;19964;-67
2022/03/09 14:37:44;;;;;;;;;;;;;;;10.24;44.48;98915.13;4844892;29;19993;-67
2022/03/09 14:40:12;;;;;;;;;;;;;;;10.10;44.77;98917.72;4844896;29;19950;-67
2022/03/09 14:42:39;;;;;;;;;;;;;;;10.09;45.10;98910.53;4844669;29;19958;-67
2022/03/09 14:45:07;;;;;;;;;;;;;;;10.08;43.66;98903.31;4845789;29;20339;-67
2022/03/09 14:47:34;;;;;;;;;;;;;;;10.00;45.51;98901.63;4845206;29;19959;-67
2022/03/09 14:50:02;;;;;;;;;;;;;;;10.09;43.94;98896.56;4844112;29;19941;-67
2022/03/09 14:52:30;;;;;;;;;;;;;;;10.03;44.17;98889.66;4843537;29;19962;-67
2022/03/09 14:54:58;;;;;;;;;;;;;;;10.00;44.49;98893.25;4842700;29;19954;-67
2022/03/09 14:57:26;;;;;;;;;;;;;;;10.07;44.95;98899.72;4848095;29;19955;-67
2022/03/09 14:59:53;;;;;;;;;;;;;;;10.12;43.84;98893.84;4846611;29;19952;-67
2022/03/09 15:02:20;;;;;;;;;;;;;;;10.02;45.92;98886.09;4831742;29;19960;-67
2022/03/09 15:04:48;;;;;;;;;;;;;;;9.94;46.34;98884.38;4848163;29;19948;-67
2022/03/09 15:07:15;;;;;;;;;;;;;;;9.89;44.40;98885.53;4854707;29;19979;-67
2022/03/09 15:09:43;;;;;;;;;;;;;;;10.05;44.62;98881.75;4850501;29;19951;-67
2022/03/09 15:12:10;;;;;;;;;;;;;;;9.90;45.25;98884.31;4848156;29;19948;-67
2022/03/09 15:14:37;;;;;;;;;;;;;;;9.98;45.63;98878.84;4848276;29;19949;-68
2022/03/09 15:17:05;;;;;;;;;;;;;;;9.99;45.84;98877.66;4844398;29;19952;-67
2022/03/09 15:19:36;;;;;;;;;;;;;;;10.02;45.60;98877.72;4848109;29;19961;-67
2022/03/09 15:22:06;;;;;;;;;;;;;;;9.85;46.58;98876.28;4848264;29;19952;-67
2022/03/09 15:24:34;;;;;;;;;;;;;;;9.91;46.39;98880.38;4852520;29;19956;-67
2022/03/09 15:27:01;;;;;;;;;;;;;;;9.88;46.02;98875.53;4860505;29;19957;-67
2022/03/09 15:29:29;;;;;;;;;;;;;;;9.71;47.17;98873.31;4847300;29;19950;-67
2022/03/09 15:31:56;;;;;;;;;;;;;;;9.79;45.80;98865.81;4847579;29;19953;-67
2022/03/09 15:34:27;;;;;;;;;;;;;;;9.75;46.83;98860.22;4843634;29;19956;-67
2022/03/09 15:36:55;;;;;;;;;;;;;;;9.70;47.55;98856.94;4829550;29;19961;-67
2022/03/09 15:39:23;;;;;;;;;;;;;;;9.68;47.46;98862.09;4830997;29;19996;-68
2022/03/09 15:41:51;;;;;;;;;;;;;;;9.59;47.37;98865.16;4837305;29;19958;-67
2022/03/09 15:44:19;;;;;;;;;;;;;;;9.57;47.95;98859.16;4846558;29;19978;-68
2022/03/09 15:46:47;;;;;;;;;;;;;;;9.61;47.81;98862.78;4846583;29;20366;-68
2022/03/09 15:49:14;;;;;;;;;;;;;;;9.61;47.11;98862.00;4846572;29;20321;-67
2022/03/09 15:51:41;;;;;;;;;;;;;;;9.56;47.33;98863.13;4849078;29;19954;-67
2022/03/09 15:54:11;;;;;;;;;;;;;;;9.57;48.30;98864.75;4846203;29;19959;-67
2022/03/09 15:56:41;;;;;;;;;;;;;;;9.46;48.18;98872.16;4844447;29;19954;-67
2022/03/09 15:59:11;;;;;;;;;;;;;;;9.48;48.84;98864.22;4845548;29;19965;-67
2022/03/09 16:01:41;;;;;;;;;;;;;;;9.43;48.07;98866.53;4847622;29;19954;-67
2022/03/09 16:04:12;;;;;;;;;;;;;;;9.41;47.98;98866.09;4846855;29;19960;-67
2022/03/09 16:06:48;;;;;;;;;;;;;;;9.38;48.41;98873.22;4844807;29;19972;-67
2022/03/09 16:09:16;;;;;;;;;;;;;;;9.29;47.93;98875.50;4846645;29;19971;-67
2022/03/09 16:11:45;;;;;;;;;;;;;;;9.28;48.20;98879.47;4846763;29;19961;-67
2022/03/09 16:14:18;;;;;;;;;;;;;;;9.27;48.15;98879.84;4845610;29;19950;-67
2022/03/09 16:16:54;;;;;;;;;;;;;;;9.28;48.18;98876.66;4846927;29;19958;-67
2022/03/09 16:19:24;;;;;;;;;;;;;;;9.23;47.45;98877.78;4844932;29;19971;-67
2022/03/09 16:21:53;;;;;;;;;;;;;;;9.21;48.21;98879.34;4847265;29;19952;-67
2022/03/09 16:24:24;;;;;;;;;;;;;;;9.16;48.62;98879.66;4846326;29;19956;-67
2022/03/09 16:26:57;;;;;;;;;;;;;;;9.08;48.78;98878.75;4845367;29;20233;-68
2022/03/09 16:29:27;;;;;;;;;;;;;;;9.07;48.92;98879.13;4845569;29;20380;-68
2022/03/09 16:31:56;;;;;;;;;;;;;;;9.09;48.35;98887.94;4846753;29;19954;-67
2022/03/09 16:34:25;;;;;;;;;;;;;;;9.07;49.04;98881.91;4838048;29;20350;-68
2022/03/09 16:36:52;;;;;;;;;;;;;;;9.07;49.54;98888.28;4842367;29;20354;-67
2022/03/09 16:39:19;;;;;;;;;;;;;;;9.02;49.70;98893.38;4845474;29;20228;-67
2022/03/09 16:41:49;;;;;;;;;;;;;;;8.96;49.40;98890.09;4842074;29;19952;-67
2022/03/09 16:44:18;;;;;;;;;;;;;;;8.92;49.86;98892.03;4845319;29;19952;-68
2022/03/09 16:46:51;;;;;;;;;;;;;;;8.92;49.81;98894.00;4845570;29;19951;-68
2022/03/09 16:49:19;;;;;;;;;;;;;;;8.90;49.79;98894.38;4845838;29;19978;-67
2022/03/09 16:51:50;;;;;;;;;;;;;;;8.87;50.27;98889.56;4845880;29;19959;-67
2022/03/09 16:54:25;;;;;;;;;;;;;;;8.86;50.21;98887.13;4829648;29;19954;-67
2022/03/09 16:56:55;;;;;;;;;;;;;;;8.82;49.97;98883.47;4825236;29;20525;-67
2022/03/09 16:59:30;;;;;;;;;;;;;;;8.79;50.29;98887.00;4843025;29;19970;-67
2022/03/09 17:02:02;;;;;;;;;;;;;;;8.72;50.42;98893.28;4843578;29;19978;-67
2022/03/09 17:04:33;;;;;;;;;;;;;;;8.72;50.13;98896.06;4843221;29;19953;-67
2022/03/09 17:07:07;;;;;;;;;;;;;;;8.66;50.47;98903.09;4844460;29;19973;-67
2022/03/09 17:09:37;;;;;;;;;;;;;;;8.59;50.71;98898.22;4833157;29;19956;-67
2022/03/09 17:12:05;;;;;;;;;;;;;;;8.56;50.95;98903.72;4853029;29;19949;-67
2022/03/09 17:14:33;;;;;;;;;;;;;;;8.51;50.93;98902.03;4833221;29;19951;-68
2022/03/09 17:17:00;;;;;;;;;;;;;;;8.46;52.46;98907.91;4840218;29;19959;-68
2022/03/09 17:19:28;;;;;;;;;;;;;;;8.44;51.61;98912.25;4829540;29;19971;-68
2022/03/09 17:21:57;;;;;;;;;;;;;;;8.32;52.27;98913.22;4844405;29;19957;-67
2022/03/09 17:24:24;;;;;;;;;;;;;;;8.30;52.17;98901.63;4843461;29;19961;-68
2022/03/09 17:26:54;;;;;;;;;;;;;;;8.19;52.66;98913.72;4845147;29;19947;-67
2022/03/09 17:29:21;;;;;;;;;;;;;;;7.99;53.54;98915.69;4845031;29;19962;-68
2022/03/09 17:31:49;;;;;;;;;;;;;;;7.89;54.80;98921.84;4842385;29;19954;-68
2022/03/09 17:34:18;;;;;;;;;;;;;;;7.87;54.87;98921.41;4842670;29;19958;-68
2022/03/09 17:36:45;;;;;;;;;;;;;;;7.87;54.83;98930.53;4845278;29;19952;-68
2022/03/09 17:39:15;;;;;;;;;;;;;;;7.75;55.27;98929.88;4843988;29;19966;-68
2022/03/09 17:41:48;;;;;;;;;;;;;;;7.64;55.85;98928.81;4844591;29;20330;-68
2022/03/09 17:44:19;;;;;;;;;;;;;;;7.58;56.73;98942.22;4844575;29;19954;-68
2022/03/09 17:47:01;;;;;;;;;;;;;;;7.50;56.98;98950.75;4830084;29;20364;-68
2022/03/09 17:49:29;;;;;;;;;;;;;;;7.48;57.32;98945.56;4837455;29;19951;-68
2022/03/09 17:51:59;;;;;;;;;;;;;;;7.43;58.59;98956.97;4844671;29;19962;-68
2022/03/09 17:54:28;;;;;;;;;;;;;;;7.41;58.01;98953.72;4843909;29;19956;-68
2022/03/09 17:57:00;;;;;;;;;;;;;;;7.42;58.74;98954.53;4846816;29;19957;-68
2022/03/09 17:59:28;;;;;;;;;;;;;;;7.41;58.87;98955.72;4835227;29;19975;-67
2022/03/09 18:01:56;;;;;;;;;;;;;;;7.43;58.46;98956.97;4844111;29;19961;-67
2022/03/09 18:04:24;;;;;;;;;;;;;;;7.44;58.42;98963.31;4844647;29;20232;-67
2022/03/09 18:06:52;;;;;;;;;;;;;;;7.44;58.32;98954.97;4840426;29;19972;-68
2022/03/09 18:09:19;;;;;;;;;;;;;;;7.41;59.23;98967.63;4843791;29;19947;-68
2022/03/09 18:11:46;;;;;;;;;;;;;;;7.42;58.68;98968.44;4841195;29;19951;-68
2022/03/09 18:14:14;;;;;;;;;;;;;;;7.38;58.31;98971.16;4845155;29;19962;-68
2022/03/09 18:16:41;;;;;;;;;;;;;;;7.40;59.23;98971.59;4845115;29;19955;-68
2022/03/09 18:19:09;;;;;;;;;;;;;;;7.37;58.75;98977.06;4852747;29;19979;-67
2022/03/09 18:21:36;;;;;;;;;;;;;;;7.32;59.25;98969.00;4826319;29;19961;-67
2022/03/09 18:24:04;;;;;;;;;;;;;;;7.34;58.90;98972.22;4844113;29;19954;-67
2022/03/09 18:26:31;;;;;;;;;;;;;;;7.31;58.78;98971.00;4835571;29;19966;-68
2022/03/09 18:28:59;;;;;;;;;;;;;;;7.27;59.17;98978.44;4847352;29;19951;-67
2022/03/09 18:31:27;;;;;;;;;;;;;;;7.24;59.03;98981.91;4832261;29;19960;-67
2022/03/09 18:33:54;;;;;;;;;;;;;;;7.23;58.97;98983.91;4849091;29;20369;-67
2022/03/09 18:36:21;;;;;;;;;;;;;;;7.20;59.38;98987.41;4849004;29;19964;-67
2022/03/09 18:38:49;;;;;;;;;;;;;;;7.24;59.52;98984.69;4847552;29;19962;-67
2022/03/09 18:41:17;;;;;;;;;;;;;;;7.23;59.69;98983.91;4849053;29;19958;-67
2022/03/09 18:43:46;;;;;;;;;;;;;;;7.22;60.19;98984.25;4848243;29;19958;-68
2022/03/09 18:46:13;;;;;;;;;;;;;;;7.27;59.89;98981.22;4847645;29;19952;-68
2022/03/09 18:48:41;;;;;;;;;;;;;;;7.29;59.08;98987.22;4846373;29;19950;-67
2022/03/09 18:51:09;;;;;;;;;;;;;;;7.26;59.10;98987.94;4847376;29;19959;-67
2022/03/09 18:53:38;;;;;;;;;;;;;;;7.26;58.68;98985.19;4845709;29;19950;-67
2022/03/09 18:56:05;;;;;;;;;;;;;;;7.31;58.41;98989.66;4848195;29;20346;-67
2022/03/09 18:58:33;;;;;;;;;;;;;;;7.34;58.35;98991.69;4848544;29;19949;-67
2022/03/09 19:01:00;;;;;;;;;;;;;;;7.36;57.56;98992.16;4847369;29;19976;-67
2022/03/09 19:03:28;;;;;;;;;;;;;;;7.39;57.49;98997.81;4831620;29;20246;-67
2022/03/09 19:05:55;;;;;;;;;;;;;;;7.41;57.27;98997.47;4846546;29;19958;-67
2022/03/09 19:08:23;;;;;;;;;;;;;;;7.34;57.85;98997.25;4848721;29;19961;-67
2022/03/09 19:10:50;;;;;;;;;;;;;;;7.33;57.80;98998.44;4847862;29;19963;-67
2022/03/09 19:13:17;;;;;;;;;;;;;;;7.30;57.99;99002.75;4846665;29;19956;-67
2022/03/09 19:15:45;;;;;;;;;;;;;;;7.34;57.70;99005.59;4847425;29;19958;-67
2022/03/09 19:18:12;;;;;;;;;;;;;;;7.31;57.63;99000.78;4843610;29;19955;-67
2022/03/09 19:20:40;;;;;;;;;;;;;;;7.21;58.14;99008.47;4843208;29;20271;-67
2022/03/09 19:23:08;;;;;;;;;;;;;;;7.19;58.00;99005.25;4840092;29;19947;-67
2022/03/09 19:25:37;;;;;;;;;;;;;;;7.21;58.30;99010.47;4842249;29;20606;-67
2022/03/09 19:28:04;;;;;;;;;;;;;;;7.23;58.53;99011.72;4843875;29;19948;-67
2022/03/09 19:30:32;;;;;;;;;;;;;;;7.23;58.59;99011.72;4843810;29;19967;-67
2022/03/09 19:32:59;;;;;;;;;;;;;;;7.25;58.23;99017.75;4845416;29;19947;-67
2022/03/09 19:35:27;;;;;;;;;;;;;;;7.25;58.28;99014.97;4853800;29;19956;-67
2022/03/09 19:37:54;;;;;;;;;;;;;;;7.24;58.32;99016.09;4848339;29;19955;-67
2022/03/09 19:40:22;;;;;;;;;;;;;;;7.22;58.23;99020.41;4847292;29;20008;-67
2022/03/09 19:42:49;;;;;;;;;;;;;;;7.19;58.29;99021.94;4846839;29;19957;-69
2022/03/09 19:45:19;;;;;;;;;;;;;;;7.15;58.58;99021.06;4845237;29;19965;-69
2022/03/09 19:47:47;;;;;;;;;;;;;;;7.09;59.00;99028.03;4843761;29;20387;-69
2022/03/09 19:50:14;;;;;;;;;;;;;;;7.01;60.08;99029.03;4839775;29;19952;-69
2022/03/09 19:52:42;;;;;;;;;;;;;;;6.94;59.93;99036.38;4847825;29;19957;-69
2022/03/09 19:55:09;;;;;;;;;;;;;;;6.92;59.52;99030.34;4843079;29;19964;-68
2022/03/09 19:57:37;;;;;;;;;;;;;;;6.89;60.20;99040.22;4841438;29;19957;-69
2022/03/09 20:00:06;;;;;;;;;;;;;;;6.90;60.12;99041.00;4842559;29;20364;-68
2022/03/09 20:02:35;;;;;;;;;;;;;;;6.94;60.05;99039.97;4843335;29;20362;-69
2022/03/09 20:05:06;;;;;;;;;;;;;;;6.94;59.51;99039.16;4845553;29;19951;-68
2022/03/09 20:07:34;;;;;;;;;;;;;;;6.94;59.41;99041.94;4845640;29;19970;-69
2022/03/09 20:10:03;;;;;;;;;;;;;;;6.95;59.84;99044.34;4837422;29;19953;-68
2022/03/09 20:12:31;;;;;;;;;;;;;;;6.99;59.84;99052.78;4847698;29;20214;-68
2022/03/09 20:15:02;;;;;;;;;;;;;;;7.00;59.72;99046.84;4838306;29;20361;-68
2022/03/09 20:17:30;;;;;;;;;;;;;;;6.99;59.52;99056.34;4846456;29;19959;-68